Hamburg Express — DFKM2 — position and weather

sailwx.info

Track history (hours):
 
Tides and Currents Weather Stations Pressure Air Temp Water Temp Dewpoint Dewpoint Depression Visibility Wind Speed Wind Dir Waves Ship Positions

Hamburg Express

Last reported at 2014-Jul-30 06:28 UTC. Time now 2014-Jul-30 07:03 UTC.
Position N 51°57' E 004°04'.

Length 366 m; draft 15.4 m.

Type: Cargo ship. MMSI: 218774000.

Date/timePositionNaut miles runAvg speedWind from/ knotsBaromVisibWave heightAir tempDewpointWater temp
2014-Jul-30 06:28N 51°57' E 004°04'0 0.0
2014-Jul-30 05:31N 51°57' E 004°04'0 0.0
2014-Jul-30 04:31N 51°57' E 004°04'0 0.0
2014-Jul-30 03:28N 51°57' E 004°04'0 0.0
2014-Jul-30 02:31N 51°57' E 004°04'0 0.0
2014-Jul-30 01:31N 51°57' E 004°04'0 0.0
2014-Jul-30 00:31N 51°57' E 004°04'0 0.0
2014-Jul-29 23:31N 51°57' E 004°04'0 0.0
2014-Jul-29 22:33N 51°57' E 004°04'2 1.6
2014-Jul-29 21:33N 51°58' E 004°05'8 8.3
2014-Jul-29 20:33N 51°59' E 003°52'2 2.1
2014-Jul-29 19:33N 51°60' E 003°48'3 3.2
2014-Jul-29 18:34N 52°03' E 003°49'9 8.6
2014-Jul-29 17:33N 52°11' E 003°43'0 0.1
2014-Jul-29 16:30N 52°11' E 003°43'0 0.0
2014-Jul-29 15:30N 52°11' E 003°43'0 0.1
2014-Jul-29 14:33N 52°10' E 003°43'0 0.1
2014-Jul-29 13:33N 52°10' E 003°43'0 0.0
2014-Jul-29 12:33N 52°10' E 003°43'0 0.0
2014-Jul-29 11:33N 52°10' E 003°43'0 0.0
2014-Jul-29 10:33N 52°10' E 003°43'0 0.0
2014-Jul-29 09:27N 52°10' E 003°43'0 0.0
2014-Jul-29 08:33N 52°10' E 003°43'0 0.0
2014-Jul-29 07:30N 52°10' E 003°43'0 0.0
2014-Jul-29 06:30N 52°10' E 003°43'0 0.1
2014-Jul-29 05:33N 52°11' E 003°43'0 0.1
2014-Jul-29 04:30N 52°11' E 003°43'0 0.1
2014-Jul-29 03:33N 52°11' E 003°43'0 0.1
2014-Jul-29 02:30N 52°11' E 003°43'0 0.1
2014-Jul-29 01:33N 52°10' E 003°43'0 0.0
2014-Jul-29 00:33N 52°10' E 003°43'4 8.1
2014-Jul-29 00:00N 52°06' E 003°42'4 8.9 040 / 221013.3 5.4 19.417.718.9
2014-Jul-28 23:30N 52°10' E 003°43'0 0.0
2014-Jul-28 22:30N 52°10' E 003°43'0 0.0
2014-Jul-28 21:33N 52°10' E 003°43'0 0.0
2014-Jul-28 20:33N 52°10' E 003°43'0 0.0
2014-Jul-28 19:33N 52°10' E 003°43'0 0.0
2014-Jul-28 18:30N 52°10' E 003°43'0 0.1
2014-Jul-28 17:33N 52°10' E 003°43'0 0.1
2014-Jul-28 16:30N 52°11' E 003°43'0 0.0
2014-Jul-28 15:24N 52°11' E 003°43'0 0.2
2014-Jul-28 14:33N 52°10' E 003°43'0 0.1
2014-Jul-28 13:33N 52°10' E 003°43'0 0.0
2014-Jul-28 12:32N 52°10' E 003°43'0 0.0
2014-Jul-28 11:32N 52°10' E 003°43'0 0.0
2014-Jul-28 10:30N 52°10' E 003°43'0 0.0
2014-Jul-28 09:33N 52°10' E 003°43'0 0.0
2014-Jul-28 08:29N 52°10' E 003°43'2 2.1
2014-Jul-28 07:33N 52°11' E 003°46'1514.6
2014-Jul-28 06:33N 52°25' E 003°50'1514.6
2014-Jul-28 05:34N 52°39' E 003°53'1413.9
2014-Jul-28 04:31N 52°54' E 003°58'2014.3
2014-Jul-28 03:07N 53°09' E 004°20'815.1
2014-Jul-28 02:33N 53°15' E 004°28'1615.8
2014-Jul-28 01:34N 53°29' E 004°41'1716.7
2014-Jul-28 00:33N 53°36' E 005°07'1616.0
2014-Jul-27 23:34N 53°41' E 005°33'1515.2
2014-Jul-27 22:34N 53°45' E 005°57'1312.6
2014-Jul-27 21:32N 53°48' E 006°18'1414.2
2014-Jul-27 20:33N 53°53' E 006°41'1414.2
2014-Jul-27 19:33N 53°56' E 007°04'1514.9
2014-Jul-27 18:33N 53°59' E 007°29'1515.1
2014-Jul-27 17:33N 54°01' E 007°54'1515.2
2014-Jul-27 16:33N 53°60' E 008°20'1817.9
2014-Jul-27 15:33N 53°51' E 008°46'1615.5
2014-Jul-27 14:33N 53°53' E 009°12'1312.8
2014-Jul-27 13:33N 53°44' E 009°27'1010.2
2014-Jul-27 12:33N 53°35' E 009°37'7 7.2
2014-Jul-27 11:33N 53°33' E 009°48'1 1.0
2014-Jul-27 10:33N 53°33' E 009°50'4 4.2
2014-Jul-27 09:33N 53°31' E 009°56'1 0.9
2014-Jul-27 08:33N 53°30' E 009°56'0 0.0
2014-Jul-27 07:33N 53°30' E 009°56'0 0.0
2014-Jul-27 06:33N 53°30' E 009°56'0 0.0
2014-Jul-27 05:33N 53°30' E 009°56'0 0.0
2014-Jul-27 04:33N 53°30' E 009°56'0 0.0
2014-Jul-27 03:33N 53°30' E 009°56'0 0.0
2014-Jul-27 02:33N 53°30' E 009°56'0 0.0
2014-Jul-27 01:33N 53°30' E 009°56'0 0.0
2014-Jul-27 00:33N 53°30' E 009°56'0 0.0
2014-Jul-26 23:33N 53°30' E 009°56'0 0.0
2014-Jul-26 22:33N 53°30' E 009°56'0 0.0
2014-Jul-26 21:30N 53°30' E 009°56'0 0.0
2014-Jul-26 20:30N 53°30' E 009°56'0 0.0
2014-Jul-26 19:33N 53°30' E 009°56'0 0.0
2014-Jul-26 18:33N 53°30' E 009°56'0 0.0
2014-Jul-26 17:33N 53°30' E 009°56'0 0.0
2014-Jul-26 16:33N 53°30' E 009°56'0 0.0
2014-Jul-26 15:33N 53°30' E 009°56'0 0.0
2014-Jul-26 14:33N 53°30' E 009°56'0 0.0
2014-Jul-26 13:33N 53°30' E 009°56'0 0.0
2014-Jul-26 12:33N 53°30' E 009°56'0 0.0
2014-Jul-26 11:30N 53°30' E 009°56'0 0.0
2014-Jul-26 10:33N 53°30' E 009°56'0 0.0
2014-Jul-26 09:33N 53°30' E 009°56'0 0.0
2014-Jul-26 08:33N 53°30' E 009°56'0 0.0
2014-Jul-26 07:30N 53°30' E 009°56'0 0.0
2014-Jul-26 06:33N 53°30' E 009°56'0 0.0
2014-Jul-26 05:33N 53°30' E 009°56'0 0.0
2014-Jul-26 04:27N 53°30' E 009°56'0 0.0
2014-Jul-26 03:33N 53°30' E 009°56'0 0.0
2014-Jul-26 02:33N 53°30' E 009°56'0 0.0
2014-Jul-26 01:33N 53°30' E 009°56'0 0.0
2014-Jul-26 00:33N 53°30' E 009°56'0 0.0
2014-Jul-25 23:33N 53°30' E 009°56'0 0.0
2014-Jul-25 22:33N 53°30' E 009°56'1 0.8
2014-Jul-25 21:33N 53°31' E 009°56'6 5.7
2014-Jul-25 20:33N 53°33' E 009°48'10 9.6
2014-Jul-25 19:34N 53°37' E 009°33'1010.4
2014-Jul-25 18:34N 53°46' E 009°24'1110.9
2014-Jul-25 17:33N 53°53' E 009°09'1111.2
2014-Jul-25 16:33N 53°50' E 008°50'1212.4
2014-Jul-25 15:33N 53°58' E 008°34'1413.9
2014-Jul-25 14:33N 53°60' E 008°10'9 9.0
2014-Jul-25 13:33N 53°58' E 007°55'1010.1
2014-Jul-25 12:33N 53°55' E 007°39'915.7
2014-Jul-25 12:00N 53°54' E 007°24'3 6.0 040 / 151016.210.8 0.523.017.518.6
2014-Jul-25 11:33N 53°53' E 007°20'1110.8
2014-Jul-25 10:33N 53°51' E 007°02'1110.9
2014-Jul-25 09:33N 53°48' E 006°44'1615.9
2014-Jul-25 08:34N 53°44' E 006°18'1716.7
2014-Jul-25 07:34N 53°40' E 005°51'1716.9
2014-Jul-25 06:34N 53°34' E 005°24'1817.8
2014-Jul-25 05:34N 53°28' E 004°56'1616.4
2014-Jul-25 04:34N 53°17' E 004°36'1818.1
2014-Jul-25 03:33N 53°01' E 004°21'1817.8
2014-Jul-25 02:34N 52°46' E 004°07'1818.0
2014-Jul-25 01:34N 52°33' E 003°46'1817.8
2014-Jul-25 00:34N 52°20' E 003°26'1220.5
2014-Jul-25 00:00N 52°12' E 003°12'614.0 070 / 201016.510.8 19.317.317.8
2014-Jul-24 23:34N 52°07' E 003°07'1716.5
2014-Jul-24 22:34N 51°54' E 002°49'1716.6
2014-Jul-24 21:34N 51°42' E 002°32'1616.3
2014-Jul-24 20:34N 51°30' E 002°13'1615.7
2014-Jul-24 19:34N 51°18' E 001°57'1514.8
2014-Jul-24 18:33N 51°07' E 001°41'1414.3
2014-Jul-24 17:33N 50°56' E 001°27'1414.1
2014-Jul-24 16:33N 50°42' E 001°21'1414.0
2014-Jul-24 15:33N 50°32' E 001°06'1414.1
2014-Jul-24 14:33N 50°26' E 000°45'1514.6
2014-Jul-24 13:33N 50°23' E 000°23'1514.7
2014-Jul-24 12:33N 50°19' E 000°01'1515.0
2014-Jul-24 11:33N 50°23' W 000°22'1515.2
2014-Jul-24 10:33N 50°29' W 000°44'1312.8
2014-Jul-24 09:33N 50°39' W 000°57'1211.7
2014-Jul-24 08:33N 50°46' W 001°12'10 9.6
2014-Jul-24 07:34N 50°52' W 001°23'3 3.4
2014-Jul-24 06:33N 50°54' W 001°27'0 0.0
2014-Jul-24 05:32N 50°54' W 001°27'0 0.0
2014-Jul-24 04:32N 50°54' W 001°27'0 0.0
2014-Jul-24 03:33N 50°54' W 001°27'0 0.0
2014-Jul-24 02:32N 50°54' W 001°27'0 0.0
2014-Jul-24 01:26N 50°54' W 001°27'0 0.0
2014-Jul-24 00:29N 50°54' W 001°27'0 0.0
2014-Jul-23 23:33N 50°54' W 001°27'0 0.0
2014-Jul-23 22:32N 50°54' W 001°27'0 0.0
2014-Jul-23 21:32N 50°54' W 001°27'0 0.0
2014-Jul-23 20:32N 50°54' W 001°27'0 0.0
2014-Jul-23 19:32N 50°54' W 001°27'0 0.0
2014-Jul-23 18:32N 50°54' W 001°27'0 0.0
2014-Jul-23 17:29N 50°54' W 001°27'0 0.0
2014-Jul-23 16:32N 50°54' W 001°27'0 0.0
2014-Jul-23 15:32N 50°54' W 001°27'0 0.0
2014-Jul-23 14:29N 50°54' W 001°27'0 0.0
2014-Jul-23 13:29N 50°54' W 001°27'0 0.0
2014-Jul-23 12:11N 50°54' W 001°27'0 0.0
2014-Jul-23 11:32N 50°54' W 001°27'0 0.0
2014-Jul-23 10:26N 50°54' W 001°27'0 0.0
2014-Jul-23 09:23N 50°54' W 001°27'0 0.0
2014-Jul-23 08:32N 50°54' W 001°27'0 0.0
2014-Jul-23 07:29N 50°54' W 001°27'0 0.0
2014-Jul-23 06:26N 50°54' W 001°27'0 0.0
2014-Jul-23 05:26N 50°54' W 001°27'0 0.0
2014-Jul-23 04:17N 50°54' W 001°27'0 0.0
2014-Jul-23 03:29N 50°54' W 001°27'0 0.0
2014-Jul-23 02:32N 50°54' W 001°27'0 0.0
2014-Jul-23 01:31N 50°54' W 001°27'0 0.0
2014-Jul-23 00:32N 50°54' W 001°27'0 0.0
2014-Jul-22 23:31N 50°54' W 001°27'0 0.0
2014-Jul-22 22:29N 50°54' W 001°27'0 0.0
2014-Jul-22 21:28N 50°54' W 001°27'0 0.0
2014-Jul-22 20:29N 50°54' W 001°27'0 0.0
2014-Jul-22 19:29N 50°54' W 001°27'0 0.0
2014-Jul-22 18:32N 50°54' W 001°27'0 0.0
2014-Jul-22 17:32N 50°54' W 001°27'0 0.0
2014-Jul-22 16:32N 50°54' W 001°27'0 0.0
2014-Jul-22 15:32N 50°54' W 001°27'0 0.0
2014-Jul-22 14:26N 50°54' W 001°27'0 0.0
2014-Jul-22 13:32N 50°54' W 001°27'0 0.0
2014-Jul-22 12:32N 50°54' W 001°27'0 0.0
2014-Jul-22 11:32N 50°54' W 001°27'0 0.0
2014-Jul-22 10:29N 50°54' W 001°27'0 0.0
2014-Jul-22 09:32N 50°54' W 001°27'0 0.0
2014-Jul-22 08:32N 50°54' W 001°27'0 0.0
2014-Jul-22 07:32N 50°54' W 001°27'0 0.0
2014-Jul-22 06:29N 50°54' W 001°27'3 2.7
2014-Jul-22 05:33N 50°53' W 001°24'9 8.7
2014-Jul-22 04:33N 50°46' W 001°15'1413.6
2014-Jul-22 03:34N 50°39' W 000°57'10 9.8
2014-Jul-22 02:33N 50°30' W 000°55'9 9.1
2014-Jul-22 01:33N 50°21' W 000°52'2110.0
2014-Jul-21 23:30N 50°01' W 000°44'1111.5
2014-Jul-21 22:33N 49°51' W 000°36'1111.2
2014-Jul-21 21:33N 49°42' W 000°27'1110.9
2014-Jul-21 20:33N 49°34' W 000°15'311.0
2014-Jul-21 20:18N 49°33' W 000°12'7 9.7
2014-Jul-21 19:33N 49°30' W 000°01'7 6.9
2014-Jul-21 18:31N 49°28' E 000°09'0 0.0
2014-Jul-21 17:31N 49°28' E 000°09'0 0.0
2014-Jul-21 16:31N 49°28' E 000°09'0 0.0
2014-Jul-21 15:28N 49°28' E 000°09'0 0.0
2014-Jul-21 14:31N 49°28' E 000°09'0 0.0
2014-Jul-21 13:31N 49°28' E 000°09'0 0.0
2014-Jul-21 12:31N 49°28' E 000°09'0 0.0
2014-Jul-21 11:31N 49°28' E 000°09'0 0.0
2014-Jul-21 10:28N 49°28' E 000°09'0 0.0
2014-Jul-21 09:31N 49°28' E 000°09'0 0.0
2014-Jul-21 08:28N 49°28' E 000°09'0 0.0
2014-Jul-21 07:31N 49°28' E 000°09'0 0.0
2014-Jul-21 06:31N 49°28' E 000°09'0 0.0
2014-Jul-21 05:31N 49°28' E 000°09'0 0.0
2014-Jul-21 04:31N 49°28' E 000°09'0 0.0
2014-Jul-21 03:31N 49°28' E 000°09'0 0.0
2014-Jul-21 02:31N 49°28' E 000°09'0 0.0
2014-Jul-21 01:31N 49°28' E 000°09'0 0.0
2014-Jul-21 00:28N 49°28' E 000°09'0 0.0
2014-Jul-20 23:31N 49°28' E 000°09'0 0.0
2014-Jul-20 22:31N 49°28' E 000°09'0 0.0
2014-Jul-20 21:31N 49°28' E 000°09'0 0.0
2014-Jul-20 20:31N 49°28' E 000°09'0 0.0
2014-Jul-20 19:31N 49°28' E 000°09'0 0.0
2014-Jul-20 18:31N 49°28' E 000°09'0 0.0
2014-Jul-20 17:31N 49°28' E 000°09'0 0.0
2014-Jul-20 16:31N 49°28' E 000°09'0 0.0
2014-Jul-20 15:31N 49°28' E 000°09'0 0.0
2014-Jul-20 14:31N 49°28' E 000°09'0 0.0
2014-Jul-20 13:31N 49°28' E 000°09'0 0.0
2014-Jul-20 12:31N 49°28' E 000°09'0 0.0
2014-Jul-20 11:28N 49°28' E 000°09'0 0.0
2014-Jul-20 10:31N 49°28' E 000°09'0 0.0
2014-Jul-20 09:31N 49°28' E 000°09'0 0.0
2014-Jul-20 08:31N 49°28' E 000°09'0 0.0
2014-Jul-20 07:28N 49°28' E 000°09'0 0.0
2014-Jul-20 06:31N 49°28' E 000°09'  
Track history (hours):
 
Tides and Currents Weather Stations Pressure Air Temp Water Temp Dewpoint Dewpoint Depression Visibility Wind Speed Wind Dir Waves Ship Positions

Hamburg Express

Last reported at 2014-Jul-30 06:28 UTC. Time now 2014-Jul-30 07:03 UTC.
Position N 51°57' E 004°04'.

Length 366 m; draft 15.4 m.

Type: Cargo ship. MMSI: 218774000.

Date/timePositionNaut miles runAvg speedWind from/ knotsBaromVisibWave heightAir tempDewpointWater temp
2014-Jul-30 06:28N 51°57' E 004°04'0 0.0
2014-Jul-30 05:31N 51°57' E 004°04'0 0.0
2014-Jul-30 04:31N 51°57' E 004°04'0 0.0
2014-Jul-30 03:28N 51°57' E 004°04'0 0.0
2014-Jul-30 02:31N 51°57' E 004°04'0 0.0
2014-Jul-30 01:31N 51°57' E 004°04'0 0.0
2014-Jul-30 00:31N 51°57' E 004°04'0 0.0
2014-Jul-29 23:31N 51°57' E 004°04'0 0.0
2014-Jul-29 22:33N 51°57' E 004°04'2 1.6
2014-Jul-29 21:33N 51°58' E 004°05'8 8.3
2014-Jul-29 20:33N 51°59' E 003°52'2 2.1
2014-Jul-29 19:33N 51°60' E 003°48'3 3.2
2014-Jul-29 18:34N 52°03' E 003°49'9 8.6
2014-Jul-29 17:33N 52°11' E 003°43'0 0.1
2014-Jul-29 16:30N 52°11' E 003°43'0 0.0
2014-Jul-29 15:30N 52°11' E 003°43'0 0.1
2014-Jul-29 14:33N 52°10' E 003°43'0 0.1
2014-Jul-29 13:33N 52°10' E 003°43'0 0.0
2014-Jul-29 12:33N 52°10' E 003°43'0 0.0
2014-Jul-29 11:33N 52°10' E 003°43'0 0.0
2014-Jul-29 10:33N 52°10' E 003°43'0 0.0
2014-Jul-29 09:27N 52°10' E 003°43'0 0.0
2014-Jul-29 08:33N 52°10' E 003°43'0 0.0
2014-Jul-29 07:30N 52°10' E 003°43'0 0.0
2014-Jul-29 06:30N 52°10' E 003°43'0 0.1
2014-Jul-29 05:33N 52°11' E 003°43'0 0.1
2014-Jul-29 04:30N 52°11' E 003°43'0 0.1
2014-Jul-29 03:33N 52°11' E 003°43'0 0.1
2014-Jul-29 02:30N 52°11' E 003°43'0 0.1
2014-Jul-29 01:33N 52°10' E 003°43'0 0.0
2014-Jul-29 00:33N 52°10' E 003°43'4 8.1
2014-Jul-29 00:00N 52°06' E 003°42'4 8.9 040 / 221013.3 5.4 19.417.718.9
2014-Jul-28 23:30N 52°10' E 003°43'0 0.0
2014-Jul-28 22:30N 52°10' E 003°43'0 0.0
2014-Jul-28 21:33N 52°10' E 003°43'0 0.0
2014-Jul-28 20:33N 52°10' E 003°43'0 0.0
2014-Jul-28 19:33N 52°10' E 003°43'0 0.0
2014-Jul-28 18:30N 52°10' E 003°43'0 0.1
2014-Jul-28 17:33N 52°10' E 003°43'0 0.1
2014-Jul-28 16:30N 52°11' E 003°43'0 0.0
2014-Jul-28 15:24N 52°11' E 003°43'0 0.2
2014-Jul-28 14:33N 52°10' E 003°43'0 0.1
2014-Jul-28 13:33N 52°10' E 003°43'0 0.0
2014-Jul-28 12:32N 52°10' E 003°43'0 0.0
2014-Jul-28 11:32N 52°10' E 003°43'0 0.0
2014-Jul-28 10:30N 52°10' E 003°43'0 0.0
2014-Jul-28 09:33N 52°10' E 003°43'0 0.0
2014-Jul-28 08:29N 52°10' E 003°43'2 2.1
2014-Jul-28 07:33N 52°11' E 003°46'1514.6
2014-Jul-28 06:33N 52°25' E 003°50'1514.6
2014-Jul-28 05:34N 52°39' E 003°53'1413.9
2014-Jul-28 04:31N 52°54' E 003°58'2014.3
2014-Jul-28 03:07N 53°09' E 004°20'815.1
2014-Jul-28 02:33N 53°15' E 004°28'1615.8
2014-Jul-28 01:34N 53°29' E 004°41'1716.7
2014-Jul-28 00:33N 53°36' E 005°07'1616.0
2014-Jul-27 23:34N 53°41' E 005°33'1515.2
2014-Jul-27 22:34N 53°45' E 005°57'1312.6
2014-Jul-27 21:32N 53°48' E 006°18'1414.2
2014-Jul-27 20:33N 53°53' E 006°41'1414.2
2014-Jul-27 19:33N 53°56' E 007°04'1514.9
2014-Jul-27 18:33N 53°59' E 007°29'1515.1
2014-Jul-27 17:33N 54°01' E 007°54'1515.2
2014-Jul-27 16:33N 53°60' E 008°20'1817.9
2014-Jul-27 15:33N 53°51' E 008°46'1615.5
2014-Jul-27 14:33N 53°53' E 009°12'1312.8
2014-Jul-27 13:33N 53°44' E 009°27'1010.2
2014-Jul-27 12:33N 53°35' E 009°37'7 7.2
2014-Jul-27 11:33N 53°33' E 009°48'1 1.0
2014-Jul-27 10:33N 53°33' E 009°50'4 4.2
2014-Jul-27 09:33N 53°31' E 009°56'1 0.9
2014-Jul-27 08:33N 53°30' E 009°56'0 0.0
2014-Jul-27 07:33N 53°30' E 009°56'0 0.0
2014-Jul-27 06:33N 53°30' E 009°56'0 0.0
2014-Jul-27 05:33N 53°30' E 009°56'0 0.0
2014-Jul-27 04:33N 53°30' E 009°56'0 0.0
2014-Jul-27 03:33N 53°30' E 009°56'0 0.0
2014-Jul-27 02:33N 53°30' E 009°56'0 0.0
2014-Jul-27 01:33N 53°30' E 009°56'0 0.0
2014-Jul-27 00:33N 53°30' E 009°56'0 0.0
2014-Jul-26 23:33N 53°30' E 009°56'0 0.0
2014-Jul-26 22:33N 53°30' E 009°56'0 0.0
2014-Jul-26 21:30N 53°30' E 009°56'0 0.0
2014-Jul-26 20:30N 53°30' E 009°56'0 0.0
2014-Jul-26 19:33N 53°30' E 009°56'0 0.0
2014-Jul-26 18:33N 53°30' E 009°56'0 0.0
2014-Jul-26 17:33N 53°30' E 009°56'0 0.0
2014-Jul-26 16:33N 53°30' E 009°56'0 0.0
2014-Jul-26 15:33N 53°30' E 009°56'0 0.0
2014-Jul-26 14:33N 53°30' E 009°56'0 0.0
2014-Jul-26 13:33N 53°30' E 009°56'0 0.0
2014-Jul-26 12:33N 53°30' E 009°56'0 0.0
2014-Jul-26 11:30N 53°30' E 009°56'0 0.0
2014-Jul-26 10:33N 53°30' E 009°56'0 0.0
2014-Jul-26 09:33N 53°30' E 009°56'0 0.0
2014-Jul-26 08:33N 53°30' E 009°56'0 0.0
2014-Jul-26 07:30N 53°30' E 009°56'0 0.0
2014-Jul-26 06:33N 53°30' E 009°56'0 0.0
2014-Jul-26 05:33N 53°30' E 009°56'0 0.0
2014-Jul-26 04:27N 53°30' E 009°56'0 0.0
2014-Jul-26 03:33N 53°30' E 009°56'0 0.0
2014-Jul-26 02:33N 53°30' E 009°56'0 0.0
2014-Jul-26 01:33N 53°30' E 009°56'0 0.0
2014-Jul-26 00:33N 53°30' E 009°56'0 0.0
2014-Jul-25 23:33N 53°30' E 009°56'0 0.0
2014-Jul-25 22:33N 53°30' E 009°56'1 0.8
2014-Jul-25 21:33N 53°31' E 009°56'6 5.7
2014-Jul-25 20:33N 53°33' E 009°48'10 9.6
2014-Jul-25 19:34N 53°37' E 009°33'1010.4
2014-Jul-25 18:34N 53°46' E 009°24'1110.9
2014-Jul-25 17:33N 53°53' E 009°09'1111.2
2014-Jul-25 16:33N 53°50' E 008°50'1212.4
2014-Jul-25 15:33N 53°58' E 008°34'1413.9
2014-Jul-25 14:33N 53°60' E 008°10'9 9.0
2014-Jul-25 13:33N 53°58' E 007°55'1010.1
2014-Jul-25 12:33N 53°55' E 007°39'915.7
2014-Jul-25 12:00N 53°54' E 007°24'3 6.0 040 / 151016.210.8 0.523.017.518.6
2014-Jul-25 11:33N 53°53' E 007°20'1110.8
2014-Jul-25 10:33N 53°51' E 007°02'1110.9
2014-Jul-25 09:33N 53°48' E 006°44'1615.9
2014-Jul-25 08:34N 53°44' E 006°18'1716.7
2014-Jul-25 07:34N 53°40' E 005°51'1716.9
2014-Jul-25 06:34N 53°34' E 005°24'1817.8
2014-Jul-25 05:34N 53°28' E 004°56'1616.4
2014-Jul-25 04:34N 53°17' E 004°36'1818.1
2014-Jul-25 03:33N 53°01' E 004°21'1817.8
2014-Jul-25 02:34N 52°46' E 004°07'1818.0
2014-Jul-25 01:34N 52°33' E 003°46'1817.8
2014-Jul-25 00:34N 52°20' E 003°26'1220.5
2014-Jul-25 00:00N 52°12' E 003°12'614.0 070 / 201016.510.8 19.317.317.8
2014-Jul-24 23:34N 52°07' E 003°07'1716.5
2014-Jul-24 22:34N 51°54' E 002°49'1716.6
2014-Jul-24 21:34N 51°42' E 002°32'1616.3
2014-Jul-24 20:34N 51°30' E 002°13'1615.7
2014-Jul-24 19:34N 51°18' E 001°57'1514.8
2014-Jul-24 18:33N 51°07' E 001°41'1414.3
2014-Jul-24 17:33N 50°56' E 001°27'1414.1
2014-Jul-24 16:33N 50°42' E 001°21'1414.0
2014-Jul-24 15:33N 50°32' E 001°06'1414.1
2014-Jul-24 14:33N 50°26' E 000°45'1514.6
2014-Jul-24 13:33N 50°23' E 000°23'1514.7
2014-Jul-24 12:33N 50°19' E 000°01'1515.0
2014-Jul-24 11:33N 50°23' W 000°22'1515.2
2014-Jul-24 10:33N 50°29' W 000°44'1312.8
2014-Jul-24 09:33N 50°39' W 000°57'1211.7
2014-Jul-24 08:33N 50°46' W 001°12'10 9.6
2014-Jul-24 07:34N 50°52' W 001°23'3 3.4
2014-Jul-24 06:33N 50°54' W 001°27'0 0.0
2014-Jul-24 05:32N 50°54' W 001°27'0 0.0
2014-Jul-24 04:32N 50°54' W 001°27'0 0.0
2014-Jul-24 03:33N 50°54' W 001°27'0 0.0
2014-Jul-24 02:32N 50°54' W 001°27'0 0.0
2014-Jul-24 01:26N 50°54' W 001°27'0 0.0
2014-Jul-24 00:29N 50°54' W 001°27'0 0.0
2014-Jul-23 23:33N 50°54' W 001°27'0 0.0
2014-Jul-23 22:32N 50°54' W 001°27'0 0.0
2014-Jul-23 21:32N 50°54' W 001°27'0 0.0
2014-Jul-23 20:32N 50°54' W 001°27'0 0.0
2014-Jul-23 19:32N 50°54' W 001°27'0 0.0
2014-Jul-23 18:32N 50°54' W 001°27'0 0.0
2014-Jul-23 17:29N 50°54' W 001°27'0 0.0
2014-Jul-23 16:32N 50°54' W 001°27'0 0.0
2014-Jul-23 15:32N 50°54' W 001°27'0 0.0
2014-Jul-23 14:29N 50°54' W 001°27'0 0.0
2014-Jul-23 13:29N 50°54' W 001°27'0 0.0
2014-Jul-23 12:11N 50°54' W 001°27'0 0.0
2014-Jul-23 11:32N 50°54' W 001°27'0 0.0
2014-Jul-23 10:26N 50°54' W 001°27'0 0.0
2014-Jul-23 09:23N 50°54' W 001°27'0 0.0
2014-Jul-23 08:32N 50°54' W 001°27'0 0.0
2014-Jul-23 07:29N 50°54' W 001°27'0 0.0
2014-Jul-23 06:26N 50°54' W 001°27'0 0.0
2014-Jul-23 05:26N 50°54' W 001°27'0 0.0
2014-Jul-23 04:17N 50°54' W 001°27'0 0.0
2014-Jul-23 03:29N 50°54' W 001°27'0 0.0
2014-Jul-23 02:32N 50°54' W 001°27'0 0.0
2014-Jul-23 01:31N 50°54' W 001°27'0 0.0
2014-Jul-23 00:32N 50°54' W 001°27'0 0.0
2014-Jul-22 23:31N 50°54' W 001°27'0 0.0
2014-Jul-22 22:29N 50°54' W 001°27'0 0.0
2014-Jul-22 21:28N 50°54' W 001°27'0 0.0
2014-Jul-22 20:29N 50°54' W 001°27'0 0.0
2014-Jul-22 19:29N 50°54' W 001°27'0 0.0
2014-Jul-22 18:32N 50°54' W 001°27'0 0.0
2014-Jul-22 17:32N 50°54' W 001°27'0 0.0
2014-Jul-22 16:32N 50°54' W 001°27'0 0.0
2014-Jul-22 15:32N 50°54' W 001°27'0 0.0
2014-Jul-22 14:26N 50°54' W 001°27'0 0.0
2014-Jul-22 13:32N 50°54' W 001°27'0 0.0
2014-Jul-22 12:32N 50°54' W 001°27'0 0.0
2014-Jul-22 11:32N 50°54' W 001°27'0 0.0
2014-Jul-22 10:29N 50°54' W 001°27'0 0.0
2014-Jul-22 09:32N 50°54' W 001°27'0 0.0
2014-Jul-22 08:32N 50°54' W 001°27'0 0.0
2014-Jul-22 07:32N 50°54' W 001°27'0 0.0
2014-Jul-22 06:29N 50°54' W 001°27'3 2.7
2014-Jul-22 05:33N 50°53' W 001°24'9 8.7
2014-Jul-22 04:33N 50°46' W 001°15'1413.6
2014-Jul-22 03:34N 50°39' W 000°57'10 9.8
2014-Jul-22 02:33N 50°30' W 000°55'9 9.1
2014-Jul-22 01:33N 50°21' W 000°52'2110.0
2014-Jul-21 23:30N 50°01' W 000°44'1111.5
2014-Jul-21 22:33N 49°51' W 000°36'1111.2
2014-Jul-21 21:33N 49°42' W 000°27'1110.9
2014-Jul-21 20:33N 49°34' W 000°15'311.0
2014-Jul-21 20:18N 49°33' W 000°12'7 9.7
2014-Jul-21 19:33N 49°30' W 000°01'7 6.9
2014-Jul-21 18:31N 49°28' E 000°09'0 0.0
2014-Jul-21 17:31N 49°28' E 000°09'0 0.0
2014-Jul-21 16:31N 49°28' E 000°09'0 0.0
2014-Jul-21 15:28N 49°28' E 000°09'0 0.0
2014-Jul-21 14:31N 49°28' E 000°09'0 0.0
2014-Jul-21 13:31N 49°28' E 000°09'0 0.0
2014-Jul-21 12:31N 49°28' E 000°09'0 0.0
2014-Jul-21 11:31N 49°28' E 000°09'0 0.0
2014-Jul-21 10:28N 49°28' E 000°09'0 0.0
2014-Jul-21 09:31N 49°28' E 000°09'0 0.0
2014-Jul-21 08:28N 49°28' E 000°09'0 0.0
2014-Jul-21 07:31N 49°28' E 000°09'0 0.0
2014-Jul-21 06:31N 49°28' E 000°09'0 0.0
2014-Jul-21 05:31N 49°28' E 000°09'0 0.0
2014-Jul-21 04:31N 49°28' E 000°09'0 0.0
2014-Jul-21 03:31N 49°28' E 000°09'0 0.0
2014-Jul-21 02:31N 49°28' E 000°09'0 0.0
2014-Jul-21 01:31N 49°28' E 000°09'0 0.0
2014-Jul-21 00:28N 49°28' E 000°09'0 0.0
2014-Jul-20 23:31N 49°28' E 000°09'0 0.0
2014-Jul-20 22:31N 49°28' E 000°09'0 0.0
2014-Jul-20 21:31N 49°28' E 000°09'0 0.0
2014-Jul-20 20:31N 49°28' E 000°09'0 0.0
2014-Jul-20 19:31N 49°28' E 000°09'0 0.0
2014-Jul-20 18:31N 49°28' E 000°09'0 0.0
2014-Jul-20 17:31N 49°28' E 000°09'0 0.0
2014-Jul-20 16:31N 49°28' E 000°09'0 0.0
2014-Jul-20 15:31N 49°28' E 000°09'0 0.0
2014-Jul-20 14:31N 49°28' E 000°09'0 0.0
2014-Jul-20 13:31N 49°28' E 000°09'0 0.0
2014-Jul-20 12:31N 49°28' E 000°09'0 0.0
2014-Jul-20 11:28N 49°28' E 000°09'0 0.0
2014-Jul-20 10:31N 49°28' E 000°09'0 0.0
2014-Jul-20 09:31N 49°28' E 000°09'0 0.0
2014-Jul-20 08:31N 49°28' E 000°09'0 0.0
2014-Jul-20 07:28N 49°28' E 000°09'0 0.0
2014-Jul-20 06:31N 49°28' E 000°09'  

Dump ship's entire track history